< Typhoon 201712 2017 Season Typhoon 201714 >
Typhoon 201713 (HATO)
General InformationDetailed Track InformationTrack Information on Google MapsForecast History on Google MapsAccess Analytics MapList of All Images || NewsDisaster Info.WeblogTrackbackTyphoon FrontTwiphoonTyphoon Now!Typhoon ImaginationJMA Disaster Info. XMLResourceGoogle EarthGE AnimationAtom FeedGeoJSON
Detalied Best Track Wind (Time Zone = UTC)
Year Month Day Hour Lat. Long. Wind (kt) Gust (kt) Direc. of Major Storm Axis Radius of Major Storm Axis (nm) Radius of Minor Storm Axis (nm) Direc. of Major Gale Axis Radius of Major Gale Axis (nm) Radius of Minor Gale Axis (nm) Image
2017 8 19 12 19.1 130.1 0 0 - - - - - - Image
2017 8 19 18 19.4 129.1 0 0 - - - - - - Image
2017 8 20 00 19.5 128.3 0 0 - - - - - - Image
2017 8 20 06 19.6 127.6 0 0 - - - - - - Image
2017 8 20 12 19.7 126.9 35 0 - - - symmetric 150 150 Image
2017 8 20 18 19.9 126.2 35 0 - - - NW 150 120 Image
2017 8 21 00 20.2 125.4 35 0 - - - NW 150 120 Image
2017 8 21 06 20.3 124.3 35 0 - - - NW 150 120 Image
2017 8 21 12 20.6 123.2 40 0 - - - NW 150 120 Image
2017 8 21 18 20.5 121.5 40 0 - - - NW 150 120 Image
2017 8 22 00 20.5 119.8 45 0 - - - NW 150 120 Image
2017 8 22 06 20.5 118.8 60 0 symmetric 40 40 SW 180 120 Image
2017 8 22 12 20.6 117.3 60 0 symmetric 40 40 W 180 120 Image
2017 8 22 18 21.1 116.0 65 0 symmetric 40 40 W 180 120 Image
2017 8 23 00 21.6 114.4 75 0 symmetric 50 50 S 180 120 Image
2017 8 23 06 22.3 112.8 75 0 symmetric 50 50 S 180 90 Image
2017 8 23 12 22.7 111.0 50 0 - - - symmetric 90 90 Image
2017 8 23 18 23.5 109.1 40 0 - - - symmetric 90 90 Image
2017 8 24 00 23.9 107.5 35 0 - - - symmetric 90 90 Image
2017 8 24 06 23.9 106.1 35 0 - - - symmetric 60 60 Image
2017 8 24 12 23.8 104.5 0 0 - - - - - - Image
2017 8 24 18 23.8 101.9 0 0 - - - - - - Image
2017 8 25 00 23.6 99.5 0 0 - - - - - - Image
Japan Meteorological Agency Best Track Data | Correction Date : 2017-10-10
< Typhoon 201712 2017 Season Typhoon 201714 >

Help